Time;durP1;ratioP1;P1;durP2;ratioP2;P2;SDS_P1;SDS_P2;PMS_P1;PMS_P2;Temp;Humidity;BMP_temperature;BMP_pressure;BME280_temperature;BME280_humidity;BME280_pressure;Samples;Min_cycle;Max_cycle;Signal;HPM_P1;HPM_P2
2022/09/14 00:02:10;;;;;;;30.45;11.50;;;17.60;99.90;;;;;;10372438;28;20068;-65
2022/09/14 00:07:11;;;;;;;24.02;11.02;;;17.50;99.90;;;;;;10370257;28;20053;-63
2022/09/14 00:12:13;;;;;;;24.65;12.18;;;17.50;99.90;;;;;;10371108;28;20122;-63
2022/09/14 00:17:15;;;;;;;23.80;11.32;;;17.50;99.90;;;;;;10373084;28;20819;-64
2022/09/14 00:22:16;;;;;;;26.40;12.30;;;17.50;99.90;;;;;;10366844;28;20558;-62
2022/09/14 00:27:18;;;;;;;26.55;12.07;;;17.50;99.90;;;;;;10374417;28;20053;-62
2022/09/14 00:32:20;;;;;;;31.38;12.30;;;17.50;99.90;;;;;;10373610;28;20152;-64
2022/09/14 00:37:21;;;;;;;31.92;12.52;;;17.50;99.90;;;;;;10373933;28;20136;-64
2022/09/14 00:42:23;;;;;;;29.45;10.95;;;17.50;99.90;;;;;;10365279;28;20128;-65
2022/09/14 00:47:27;;;;;;;29.30;13.05;;;17.50;99.90;;;;;;10366441;28;20061;-63
2022/09/14 00:52:31;;;;;;;31.40;12.10;;;17.50;99.90;;;;;;10371458;28;20138;-64
2022/09/14 00:57:49;;;;;;;27.60;12.18;;;17.50;99.90;;;;;;10367975;28;20056;-65
2022/09/14 01:02:51;;;;;;;24.15;11.60;;;17.50;99.90;;;;;;10384289;28;20052;-65
2022/09/14 01:08:17;;;;;;;32.72;11.70;;;17.50;99.90;;;;;;10373088;28;20148;-65
2022/09/14 01:13:28;;;;;;;25.73;12.20;;;17.50;99.90;;;;;;10367044;28;20137;-63
2022/09/14 01:18:43;;;;;;;24.92;11.38;;;17.50;99.90;;;;;;10370022;28;20102;-65
2022/09/14 01:24:15;;;;;;;32.70;14.00;;;17.50;99.90;;;;;;10370328;28;20157;-64
2022/09/14 01:29:35;;;;;;;34.10;14.45;;;17.60;99.90;;;;;;10359961;28;20076;-64
2022/09/14 01:34:43;;;;;;;36.47;12.95;;;17.60;99.90;;;;;;10368118;28;20156;-62
2022/09/14 01:39:52;;;;;;;29.10;13.68;;;17.60;99.90;;;;;;10375845;28;20052;-64
2022/09/14 01:45:01;;;;;;;26.85;12.00;;;17.60;99.90;;;;;;10377613;28;20052;-64
2022/09/14 01:50:49;;;;;;;27.08;11.60;;;17.50;99.90;;;;;;10367472;28;20046;-64
2022/09/14 01:55:58;;;;;;;29.45;11.73;;;17.60;99.90;;;;;;10370832;28;20091;-63
2022/09/14 02:01:02;;;;;;;30.45;10.77;;;17.50;99.90;;;;;;10365725;28;20053;-64
2022/09/14 02:06:12;;;;;;;28.58;11.45;;;17.50;99.90;;;;;;10375712;28;20049;-62
2022/09/14 02:11:13;;;;;;;27.02;12.65;;;17.50;99.90;;;;;;10369245;28;20049;-64
2022/09/14 02:16:15;;;;;;;25.25;11.20;;;17.50;99.90;;;;;;10377040;28;20096;-63
2022/09/14 02:21:21;;;;;;;30.75;11.60;;;17.50;99.90;;;;;;10376170;28;20045;-62
2022/09/14 02:26:24;;;;;;;24.38;11.15;;;17.50;99.90;;;;;;10378232;28;20088;-63
2022/09/14 02:31:45;;;;;;;21.25;10.85;;;17.60;99.90;;;;;;10375872;28;20067;-62
2022/09/14 02:37:01;;;;;;;27.20;11.48;;;17.60;99.90;;;;;;10371809;28;20053;-63
2022/09/14 02:42:33;;;;;;;29.17;11.95;;;17.60;99.90;;;;;;10366804;28;20392;-62
2022/09/14 02:48:03;;;;;;;26.00;10.90;;;17.60;99.90;;;;;;10357697;28;20634;-62
2022/09/14 02:53:27;;;;;;;24.95;10.77;;;17.50;99.90;;;;;;10371653;28;20048;-63
2022/09/14 02:58:41;;;;;;;28.90;11.20;;;17.50;99.90;;;;;;10373686;28;20057;-64
2022/09/14 03:03:42;;;;;;;27.75;9.38;;;17.50;99.90;;;;;;10369053;28;20163;-64
2022/09/14 03:08:44;;;;;;;23.00;9.35;;;17.50;99.90;;;;;;10375932;28;20136;-63
2022/09/14 03:13:46;;;;;;;21.83;8.43;;;17.50;99.90;;;;;;10376565;28;20547;-62
2022/09/14 03:18:47;;;;;;;22.35;7.72;;;17.50;99.90;;;;;;10377131;28;20157;-62
2022/09/14 03:23:51;;;;;;;19.20;7.90;;;17.50;99.90;;;;;;10372477;28;20088;-60
2022/09/14 03:28:55;;;;;;;11.95;5.35;;;17.50;99.90;;;;;;10380823;28;20049;-61
2022/09/14 03:33:59;;;;;;;14.20;5.93;;;17.50;99.90;;;;;;10372505;28;20061;-60
2022/09/14 03:39:00;;;;;;;23.27;6.65;;;17.50;99.90;;;;;;10373643;28;20105;-61
2022/09/14 03:44:02;;;;;;;19.55;6.35;;;17.50;99.90;;;;;;10372321;28;20052;-60
2022/09/14 03:49:04;;;;;;;32.75;6.82;;;17.50;99.90;;;;;;10366836;28;20060;-60
2022/09/14 03:54:06;;;;;;;19.30;6.30;;;17.50;99.90;;;;;;10374977;28;20059;-60
2022/09/14 03:59:08;;;;;;;17.13;6.00;;;17.50;99.90;;;;;;10325358;28;20042;-61
2022/09/14 04:04:10;;;;;;;18.33;6.32;;;17.50;99.90;;;;;;10328656;28;20057;-60
2022/09/14 04:09:12;;;;;;;16.15;5.78;;;17.50;99.90;;;;;;10329256;28;20339;-60
2022/09/14 04:14:14;;;;;;;21.20;6.13;;;17.50;99.90;;;;;;10327063;28;20058;-61
2022/09/14 04:19:16;;;;;;;12.23;5.07;;;17.50;99.90;;;;;;10327693;28;20460;-60
2022/09/14 04:24:17;;;;;;;16.40;6.68;;;17.50;99.90;;;;;;10330564;28;20048;-60
2022/09/14 04:29:20;;;;;;;16.48;7.40;;;17.50;99.90;;;;;;10326308;28;20124;-60
2022/09/14 04:34:21;;;;;;;19.13;7.22;;;17.50;99.90;;;;;;10329850;28;20496;-61
2022/09/14 04:39:24;;;;;;;18.52;7.05;;;17.50;99.90;;;;;;10328910;28;20133;-61
2022/09/14 04:44:26;;;;;;;14.98;7.20;;;17.50;99.90;;;;;;10326836;28;20451;-60
2022/09/14 04:49:27;;;;;;;20.40;8.32;;;17.50;99.90;;;;;;10330963;28;20128;-61
2022/09/14 04:54:29;;;;;;;13.40;6.82;;;17.50;99.90;;;;;;10334473;28;20060;-59
2022/09/14 04:59:31;;;;;;;19.80;6.65;;;17.50;99.90;;;;;;10331917;28;20060;-60
2022/09/14 05:04:32;;;;;;;18.40;7.93;;;17.50;99.90;;;;;;10329241;28;20104;-59
2022/09/14 05:09:34;;;;;;;20.35;6.78;;;17.50;99.90;;;;;;10328197;28;20099;-60
2022/09/14 05:14:36;;;;;;;19.17;7.43;;;17.50;99.90;;;;;;10346391;28;20041;-60
2022/09/14 05:19:37;;;;;;;19.02;7.60;;;17.50;99.90;;;;;;10338862;28;20049;-61
2022/09/14 05:24:39;;;;;;;17.13;6.40;;;17.50;99.90;;;;;;10332510;28;20049;-59
2022/09/14 05:29:40;;;;;;;14.13;5.63;;;17.50;99.90;;;;;;10336909;28;20125;-59
2022/09/14 05:34:42;;;;;;;18.45;5.90;;;17.50;99.90;;;;;;10331720;28;20480;-59
2022/09/14 05:39:44;;;;;;;10.55;4.70;;;17.50;99.90;;;;;;10332645;28;20046;-59
2022/09/14 05:44:46;;;;;;;12.35;5.07;;;17.50;99.90;;;;;;10342949;28;20048;-60
2022/09/14 05:49:47;;;;;;;9.60;4.53;;;17.50;99.90;;;;;;10337014;28;20074;-60
2022/09/14 05:54:49;;;;;;;10.98;4.18;;;17.50;99.90;;;;;;10336813;28;20054;-59
2022/09/14 05:59:51;;;;;;;7.70;3.20;;;17.50;99.90;;;;;;10335408;28;20053;-59
2022/09/14 06:04:52;;;;;;;9.05;3.47;;;17.50;99.90;;;;;;10341852;28;20088;-59
2022/09/14 06:09:54;;;;;;;11.07;3.70;;;17.50;99.90;;;;;;10332262;28;20038;-60
2022/09/14 06:14:56;;;;;;;10.57;3.45;;;17.50;99.90;;;;;;10338151;28;20182;-61
2022/09/14 06:19:58;;;;;;;10.07;4.13;;;17.50;99.90;;;;;;10338729;28;20065;-59
2022/09/14 06:25:05;;;;;;;11.07;5.15;;;17.50;99.90;;;;;;10340021;28;20069;-58
2022/09/14 06:30:07;;;;;;;11.93;4.20;;;17.60;99.90;;;;;;10337825;28;20049;-60
2022/09/14 06:35:09;;;;;;;8.25;3.72;;;17.60;99.90;;;;;;10332953;28;20155;-59
2022/09/14 06:40:13;;;;;;;7.80;3.10;;;17.50;99.90;;;;;;10333322;28;20519;-59
2022/09/14 06:45:15;;;;;;;10.52;3.83;;;17.60;99.90;;;;;;10328404;28;20042;-60
2022/09/14 06:50:16;;;;;;;14.95;4.10;;;17.60;99.90;;;;;;10335066;28;20569;-61
2022/09/14 06:55:18;;;;;;;20.90;3.80;;;17.60;99.90;;;;;;10327244;28;20050;-60
2022/09/14 07:00:20;;;;;;;7.30;3.17;;;17.60;99.90;;;;;;10331622;28;20052;-61
2022/09/14 07:05:22;;;;;;;6.82;3.08;;;17.70;99.90;;;;;;10329295;28;20046;-60
2022/09/14 07:10:26;;;;;;;7.75;2.80;;;17.70;99.90;;;;;;10334936;28;20046;-61
2022/09/14 07:15:28;;;;;;;6.85;2.47;;;17.60;99.90;;;;;;10342485;28;20073;-61
2022/09/14 07:20:30;;;;;;;7.70;2.53;;;17.60;99.90;;;;;;10336101;28;20375;-61
2022/09/14 07:25:31;;;;;;;7.30;2.90;;;17.60;99.90;;;;;;10338280;28;20057;-61
2022/09/14 07:30:37;;;;;;;8.93;2.85;;;17.60;99.90;;;;;;10331600;28;20056;-61
2022/09/14 07:35:39;;;;;;;7.53;2.93;;;17.60;99.90;;;;;;10330185;28;20050;-60
2022/09/14 07:40:41;;;;;;;8.32;3.22;;;17.80;99.90;;;;;;10334244;28;20054;-59
2022/09/14 07:45:42;;;;;;;6.25;3.55;;;17.80;99.90;;;;;;10333653;28;20667;-60
2022/09/14 07:50:44;;;;;;;10.00;3.28;;;18.00;99.90;;;;;;10331643;28;20056;-60
2022/09/14 07:55:46;;;;;;;9.07;3.33;;;18.10;99.90;;;;;;10330150;28;20141;-60
2022/09/14 08:00:47;;;;;;;5.03;2.40;;;18.20;99.90;;;;;;10330224;28;20126;-61
2022/09/14 08:05:55;;;;;;;3.40;2.17;;;18.30;99.90;;;;;;10323496;28;20138;-61
2022/09/14 08:11:06;;;;;;;4.38;2.45;;;18.20;99.90;;;;;;10330746;28;20096;-61
2022/09/14 08:16:08;;;;;;;6.65;3.35;;;18.00;99.90;;;;;;10328550;28;20083;-60
2022/09/14 08:21:15;;;;;;;9.10;3.88;;;18.00;99.90;;;;;;10335067;28;20043;-61
2022/09/14 08:26:22;;;;;;;7.20;2.92;;;18.10;99.90;;;;;;10332168;28;20054;-62
2022/09/14 08:31:25;;;;;;;10.15;4.78;;;18.00;99.90;;;;;;10327926;28;20129;-60
2022/09/14 08:36:30;;;;;;;8.55;3.47;;;18.10;99.90;;;;;;10327086;28;20054;-60
2022/09/14 08:41:47;;;;;;;7.18;3.58;;;18.20;99.90;;;;;;10328411;28;20066;-61
2022/09/14 08:46:54;;;;;;;8.88;2.80;;;18.10;99.90;;;;;;10333724;28;20042;-62
2022/09/14 08:51:56;;;;;;;8.82;2.13;;;18.20;99.90;;;;;;10325692;28;20343;-62
2022/09/14 08:57:23;;;;;;;7.32;2.42;;;18.20;99.90;;;;;;10328510;28;20140;-61
2022/09/14 09:02:25;;;;;;;3.17;1.50;;;18.20;99.90;;;;;;10332483;28;20137;-61
2022/09/14 09:07:42;;;;;;;5.50;2.70;;;18.30;99.90;;;;;;10323289;28;27666;-63
2022/09/14 09:12:52;;;;;;;5.25;2.67;;;18.40;99.90;;;;;;10332418;28;20105;-60
2022/09/14 09:18:21;;;;;;;5.25;2.83;;;18.50;99.90;;;;;;10343589;28;20069;-61
2022/09/14 09:23:26;;;;;;;6.38;2.75;;;18.60;99.90;;;;;;10297383;28;20152;-61
2022/09/14 09:28:29;;;;;;;2.93;1.33;;;18.60;99.90;;;;;;10324635;28;20487;-62
2022/09/14 09:33:31;;;;;;;2.95;1.50;;;18.50;99.90;;;;;;10331321;28;20056;-60
2022/09/14 09:38:33;;;;;;;4.10;1.80;;;18.50;99.90;;;;;;10328852;28;20289;-61
2022/09/14 09:43:55;;;;;;;4.90;1.63;;;18.70;99.90;;;;;;10328535;28;20048;-62
2022/09/14 09:48:58;;;;;;;5.53;1.60;;;19.00;99.90;;;;;;10324975;28;20069;-62
2022/09/14 09:54:12;;;;;;;7.90;2.25;;;19.00;99.90;;;;;;10338842;28;20427;-61
2022/09/14 09:59:27;;;;;;;6.43;2.55;;;19.00;99.90;;;;;;10329200;28;20050;-62
2022/09/14 10:04:29;;;;;;;4.45;2.80;;;19.10;99.90;;;;;;10333623;28;20100;-61
2022/09/14 10:09:31;;;;;;;6.65;2.15;;;19.00;99.90;;;;;;10333545;28;20111;-60
2022/09/14 10:14:34;;;;;;;7.38;2.72;;;19.00;99.90;;;;;;10352801;28;20548;-62
2022/09/14 10:19:36;;;;;;;3.33;1.98;;;18.90;99.90;;;;;;10337519;28;20050;-61
2022/09/14 10:24:38;;;;;;;4.75;2.10;;;18.90;99.90;;;;;;10337004;28;20105;-61
2022/09/14 10:29:45;;;;;;;5.10;2.38;;;18.90;99.90;;;;;;10337342;28;20121;-63
2022/09/14 10:34:46;;;;;;;;;;;19.00;99.90;;;;;;10335537;28;20168;-61
2022/09/14 10:40:06;;;;;;;2.95;2.30;;;19.00;99.90;;;;;;10330553;28;19930;-63
2022/09/14 10:45:19;;;;;;;4.35;1.70;;;19.00;99.90;;;;;;10332064;28;20129;-64
2022/09/14 10:50:40;;;;;;;5.53;1.98;;;19.10;99.90;;;;;;10336535;28;20056;-63
2022/09/14 10:56:06;;;;;;;6.95;1.73;;;19.10;99.90;;;;;;10333362;28;20156;-61
2022/09/14 11:01:07;;;;;;;2.75;1.83;;;19.20;99.90;;;;;;10331957;28;20038;-63
2022/09/14 11:06:43;;;;;;;5.32;2.50;;;19.20;99.90;;;;;;10344559;28;20054;-62
2022/09/14 11:11:58;;;;;;;3.47;1.67;;;19.20;99.90;;;;;;10329141;28;20073;-61
2022/09/14 11:17:06;;;;;;;2.55;1.63;;;19.40;99.90;;;;;;10342605;28;20117;-61
2022/09/14 11:22:14;;;;;;;5.38;2.17;;;19.30;99.90;;;;;;10332974;28;20074;-61
2022/09/14 11:27:24;;;;;;;3.50;2.38;;;19.40;99.90;;;;;;10333618;28;20557;-60
2022/09/14 11:32:33;;;;;;;4.40;2.33;;;19.40;99.90;;;;;;10332549;28;20053;-60
2022/09/14 11:37:41;;;;;;;4.63;2.42;;;19.50;99.90;;;;;;10328084;28;20060;-62
2022/09/14 11:42:59;;;;;;;2.70;1.75;;;19.40;99.90;;;;;;10331269;28;20144;-60
2022/09/14 11:48:10;;;;;;;5.45;1.50;;;19.30;99.90;;;;;;10331291;28;20145;-62
2022/09/14 11:53:32;;;;;;;4.47;2.35;;;19.40;99.90;;;;;;10329208;28;20631;-58
2022/09/14 11:58:35;;;;;;;4.30;2.55;;;19.50;99.90;;;;;;10334461;28;20057;-60
2022/09/14 12:03:51;;;;;;;3.90;2.55;;;19.70;99.90;;;;;;10337225;28;20485;-60
2022/09/14 12:08:53;;;;;;;7.47;3.03;;;19.70;99.90;;;;;;10324298;28;20046;-61
2022/09/14 12:14:25;;;;;;;6.63;3.58;;;19.70;99.90;;;;;;10330926;28;20054;-62
2022/09/14 12:19:27;;;;;;;9.93;3.35;;;19.80;99.90;;;;;;10324437;28;20074;-60
2022/09/14 12:24:29;;;;;;;10.63;3.83;;;19.90;99.90;;;;;;10330449;28;20081;-61
2022/09/14 12:29:32;;;;;;;5.43;2.92;;;20.00;99.90;;;;;;10326165;28;20129;-62
2022/09/14 12:34:34;;;;;;;6.63;3.63;;;20.10;99.90;;;;;;10342684;28;20112;-62
2022/09/14 12:39:36;;;;;;;5.35;2.70;;;20.30;99.90;;;;;;10329361;28;20065;-60
2022/09/14 12:44:40;;;;;;;10.07;2.97;;;20.40;99.90;;;;;;10327558;28;20739;-61
2022/09/14 12:49:42;;;;;;;4.82;3.00;;;20.50;99.90;;;;;;10333264;28;20136;-61
2022/09/14 12:54:57;;;;;;;6.95;3.20;;;20.60;99.90;;;;;;10336476;28;20516;-61
2022/09/14 13:00:13;;;;;;;7.60;3.20;;;20.70;99.90;;;;;;10331460;28;20397;-60
2022/09/14 13:05:18;;;;;;;4.90;2.92;;;20.60;99.90;;;;;;10323468;28;20062;-59
2022/09/14 13:10:30;;;;;;;7.32;3.25;;;20.70;99.90;;;;;;10331166;28;20128;-61
2022/09/14 13:15:36;;;;;;;9.35;3.05;;;20.60;99.90;;;;;;10327690;28;20060;-62
2022/09/14 13:20:39;;;;;;;9.70;3.53;;;20.40;99.90;;;;;;10329138;28;20424;-62
2022/09/14 13:25:40;;;;;;;5.68;3.40;;;20.20;99.90;;;;;;10331646;28;20053;-62
2022/09/14 13:30:52;;;;;;;10.98;4.82;;;20.10;99.90;;;;;;10331973;28;20050;-62
2022/09/14 13:36:00;;;;;;;8.52;4.20;;;20.10;99.90;;;;;;10337354;28;20078;-61
2022/09/14 13:41:06;;;;;;;7.53;4.55;;;20.00;99.90;;;;;;10336820;28;20488;-63
2022/09/14 13:46:10;;;;;;;9.10;5.23;;;19.90;99.90;;;;;;10338763;28;20089;-61
2022/09/14 13:51:13;;;;;;;9.70;5.60;;;19.90;99.90;;;;;;10336556;28;20285;-61
2022/09/14 13:56:19;;;;;;;9.82;4.53;;;19.80;99.90;;;;;;10333777;28;20142;-62
2022/09/14 14:01:24;;;;;;;10.77;5.88;;;19.70;99.90;;;;;;10331039;28;20038;-62
2022/09/14 14:06:27;;;;;;;10.40;5.68;;;19.70;99.90;;;;;;10333069;28;20053;-62
2022/09/14 14:11:42;;;;;;;10.05;6.90;;;19.60;99.90;;;;;;10339962;28;20386;-62
2022/09/14 14:17:20;;;;;;;14.73;6.18;;;19.60;99.90;;;;;;10331919;28;20129;-63
2022/09/14 14:22:26;;;;;;;15.98;5.20;;;19.50;99.90;;;;;;10329467;28;20053;-61
2022/09/14 14:27:33;;;;;;;11.43;4.40;;;19.50;99.90;;;;;;10342069;28;20050;-60
2022/09/14 14:32:35;;;;;;;12.30;5.00;;;19.50;99.90;;;;;;10337564;28;20069;-60
2022/09/14 14:37:37;;;;;;;14.02;5.50;;;19.30;99.90;;;;;;10336118;28;20120;-59
2022/09/14 14:42:39;;;;;;;17.75;4.78;;;19.30;99.90;;;;;;10333441;28;20444;-59
2022/09/14 14:47:41;;;;;;;13.68;4.25;;;19.20;99.90;;;;;;10335028;28;20144;-60
2022/09/14 14:52:43;;;;;;;10.65;4.97;;;19.20;99.90;;;;;;10329096;28;20042;-59
2022/09/14 14:57:45;;;;;;;7.53;4.00;;;19.00;99.90;;;;;;10322402;28;20483;-60
2022/09/14 15:02:47;;;;;;;9.13;3.53;;;19.00;99.90;;;;;;10339601;28;20092;-59
2022/09/14 15:07:51;;;;;;;7.97;3.90;;;19.10;99.90;;;;;;10340547;28;20060;-58
2022/09/14 15:12:53;;;;;;;12.20;4.63;;;19.00;99.90;;;;;;10335074;28;20539;-59
2022/09/14 15:17:55;;;;;;;15.80;5.78;;;19.00;99.90;;;;;;10339720;28;20049;-60
2022/09/14 15:22:57;;;;;;;12.90;5.30;;;19.10;99.90;;;;;;10342235;28;20054;-58
2022/09/14 15:27:59;;;;;;;13.88;4.60;;;19.20;99.90;;;;;;10343147;28;25292;-59
2022/09/14 15:33:00;;;;;;;16.15;5.40;;;19.10;99.90;;;;;;10337748;28;20511;-61
2022/09/14 15:38:02;;;;;;;22.25;5.85;;;19.20;99.90;;;;;;10340154;28;20053;-61
2022/09/14 15:43:04;;;;;;;11.15;4.60;;;19.30;99.90;;;;;;10334549;28;20152;-60
2022/09/14 15:48:06;;;;;;;14.00;6.22;;;19.50;99.90;;;;;;10332051;28;20507;-59
2022/09/14 15:53:08;;;;;;;10.93;5.53;;;19.60;99.90;;;;;;10325904;28;20125;-60
2022/09/14 15:58:10;;;;;;;15.23;6.72;;;19.60;99.90;;;;;;10329775;28;20096;-61
2022/09/14 16:03:12;;;;;;;12.82;6.07;;;19.70;99.90;;;;;;10338361;28;20056;-60
2022/09/14 16:08:14;;;;;;;12.68;4.25;;;19.70;99.90;;;;;;10329691;28;20133;-61
2022/09/14 16:13:15;;;;;;;10.43;2.63;;;19.70;99.90;;;;;;10332527;28;20058;-60
2022/09/14 16:18:17;;;;;;;5.43;1.88;;;19.70;99.90;;;;;;10328628;28;20046;-59
2022/09/14 16:23:19;;;;;;;8.57;1.98;;;19.60;99.90;;;;;;10329472;28;20045;-60
2022/09/14 16:28:20;;;;;;;5.03;1.75;;;19.60;99.90;;;;;;10302437;28;20112;-61
2022/09/14 16:33:22;;;;;;;8.77;1.77;;;19.50;99.90;;;;;;10329426;28;20050;-60
2022/09/14 16:38:24;;;;;;;5.65;1.60;;;19.40;99.90;;;;;;10330165;28;20505;-60
2022/09/14 16:43:26;;;;;;;3.55;1.63;;;19.40;99.90;;;;;;10327202;28;20128;-61
2022/09/14 16:48:30;;;;;;;6.85;1.90;;;19.40;99.90;;;;;;10329958;28;20137;-60
2022/09/14 16:53:34;;;;;;;5.18;1.40;;;19.40;99.90;;;;;;10331562;28;20081;-61
2022/09/14 16:58:37;;;;;;;4.50;1.83;;;19.30;99.90;;;;;;10328730;28;20419;-59
2022/09/14 17:03:40;;;;;;;5.88;2.15;;;19.30;99.90;;;;;;10327170;28;20107;-60
2022/09/14 17:08:43;;;;;;;8.18;2.78;;;19.30;99.90;;;;;;10336289;28;20455;-60
2022/09/14 17:13:45;;;;;;;10.07;3.63;;;19.30;99.90;;;;;;10335612;28;20056;-59
2022/09/14 17:18:50;;;;;;;10.80;2.45;;;19.30;99.90;;;;;;10337734;28;20090;-60
2022/09/14 17:23:52;;;;;;;8.75;3.22;;;19.30;99.90;;;;;;10330261;28;20089;-60
2022/09/14 17:28:56;;;;;;;18.73;2.58;;;19.20;99.90;;;;;;10333335;28;20070;-59
2022/09/14 17:34:00;;;;;;;4.13;1.25;;;19.00;99.90;;;;;;10336771;28;20054;-60
2022/09/14 17:39:03;;;;;;;4.20;0.60;;;18.90;99.90;;;;;;10338347;28;20084;-59
2022/09/14 17:44:13;;;;;;;1.75;0.65;;;18.70;99.90;;;;;;10334536;28;20054;-59
2022/09/14 17:49:15;;;;;;;0.95;0.40;;;18.60;99.90;;;;;;10330791;28;20053;-59
2022/09/14 17:54:17;;;;;;;5.97;0.73;;;18.60;99.90;;;;;;10332837;28;20124;-61
2022/09/14 17:59:19;;;;;;;1.23;0.50;;;18.60;99.90;;;;;;10334611;28;20112;-60
2022/09/14 18:04:21;;;;;;;5.22;0.80;;;18.40;99.90;;;;;;10332968;28;20054;-60
2022/09/14 18:09:23;;;;;;;3.63;0.50;;;18.50;99.90;;;;;;10332216;28;20066;-60
2022/09/14 18:14:25;;;;;;;1.77;0.85;;;18.50;99.90;;;;;;10334443;28;20038;-60
2022/09/14 18:19:27;;;;;;;4.55;0.60;;;18.40;99.90;;;;;;10338241;28;20045;-59
2022/09/14 18:24:29;;;;;;;7.45;0.63;;;18.30;99.90;;;;;;10338421;28;20082;-62
2022/09/14 18:29:32;;;;;;;2.85;0.70;;;18.20;99.90;;;;;;10355149;28;20129;-64
2022/09/14 18:34:34;;;;;;;2.05;1.00;;;18.30;99.90;;;;;;10347233;28;20065;-64
2022/09/14 18:39:35;;;;;;;5.03;0.70;;;18.20;99.90;;;;;;10338575;28;20056;-63
2022/09/14 18:44:37;;;;;;;5.45;1.00;;;18.30;99.90;;;;;;10335192;28;20076;-62
2022/09/14 18:49:39;;;;;;;3.75;1.00;;;18.30;99.90;;;;;;10332506;28;20071;-63
2022/09/14 18:54:40;;;;;;;5.90;1.10;;;18.30;99.90;;;;;;10345839;28;20068;-64
2022/09/14 18:59:43;;;;;;;2.28;0.80;;;18.20;99.90;;;;;;10336926;28;20076;-65
2022/09/14 19:04:44;;;;;;;2.15;0.77;;;18.20;99.90;;;;;;10356845;28;20064;-64
2022/09/14 19:09:47;;;;;;;5.25;1.00;;;18.10;99.90;;;;;;10342635;28;20050;-64
2022/09/14 19:14:49;;;;;;;3.67;0.80;;;18.20;99.90;;;;;;10327593;28;20058;-64
2022/09/14 19:19:52;;;;;;;3.30;0.90;;;18.20;99.90;;;;;;10332516;28;20125;-62
2022/09/14 19:24:53;;;;;;;2.90;0.90;;;18.20;99.90;;;;;;10333919;28;20116;-63
2022/09/14 19:29:55;;;;;;;1.48;0.55;;;18.20;99.90;;;;;;10327175;28;20129;-63
2022/09/14 19:34:57;;;;;;;4.07;0.82;;;18.20;99.90;;;;;;10330749;28;20073;-63
2022/09/14 19:39:58;;;;;;;3.42;1.17;;;18.30;99.90;;;;;;10329600;28;20125;-62
2022/09/14 19:45:00;;;;;;;5.75;0.88;;;18.20;99.90;;;;;;10327983;28;20101;-63
2022/09/14 19:50:03;;;;;;;5.95;1.23;;;18.30;99.90;;;;;;10331106;28;20050;-64
2022/09/14 19:55:05;;;;;;;2.67;0.80;;;18.30;99.90;;;;;;10332613;28;20069;-64
2022/09/14 20:00:09;;;;;;;3.92;0.40;;;18.20;99.90;;;;;;10329148;28;20416;-64
2022/09/14 20:05:15;;;;;;;4.90;0.50;;;18.10;99.90;;;;;;10331502;28;20064;-64
2022/09/14 20:10:17;;;;;;;0.75;0.50;;;18.10;99.90;;;;;;10320968;28;20053;-64
2022/09/14 20:15:19;;;;;;;3.78;0.68;;;18.00;99.90;;;;;;10321258;28;20487;-64
2022/09/14 20:20:22;;;;;;;3.92;0.80;;;18.10;99.90;;;;;;10331565;28;20092;-62
2022/09/14 20:25:25;;;;;;;1.38;0.70;;;18.10;99.90;;;;;;10325514;28;20456;-65
2022/09/14 20:30:26;;;;;;;6.18;0.50;;;18.10;99.90;;;;;;10330452;28;20137;-64
2022/09/14 20:35:28;;;;;;;3.03;0.75;;;18.10;99.90;;;;;;10327202;28;20058;-62
2022/09/14 20:40:30;;;;;;;2.95;0.65;;;18.10;99.90;;;;;;10325121;28;20141;-65
2022/09/14 20:45:32;;;;;;;6.85;0.90;;;18.10;99.90;;;;;;10327896;28;20115;-64
2022/09/14 20:50:34;;;;;;;5.70;1.25;;;18.10;99.90;;;;;;10327785;28;20078;-62
2022/09/14 20:55:36;;;;;;;3.92;1.05;;;18.10;99.90;;;;;;10331637;28;20053;-63
2022/09/14 21:00:37;;;;;;;1.80;0.75;;;18.10;99.90;;;;;;10326040;28;20046;-62
2022/09/14 21:05:39;;;;;;;2.58;0.40;;;18.10;99.90;;;;;;10328764;28;20572;-62
2022/09/14 21:10:41;;;;;;;0.65;0.30;;;18.00;99.90;;;;;;10325223;28;20060;-63
2022/09/14 21:15:42;;;;;;;0.20;0.20;;;17.70;99.90;;;;;;10327669;28;20569;-64
2022/09/14 21:20:44;;;;;;;0.28;0.20;;;17.60;99.90;;;;;;10325987;28;20058;-63
2022/09/14 21:25:53;;;;;;;0.57;0.20;;;17.50;99.90;;;;;;10329694;28;20081;-62
2022/09/14 21:31:08;;;;;;;0.47;0.20;;;17.40;99.90;;;;;;10324518;28;20179;-64
2022/09/14 21:36:15;;;;;;;0.60;0.10;;;17.40;99.90;;;;;;10326026;28;20049;-62
2022/09/14 21:41:18;;;;;;;0.75;0.20;;;17.40;99.90;;;;;;10332339;28;20137;-62
2022/09/14 21:46:20;;;;;;;0.40;0.30;;;17.40;99.90;;;;;;10334050;28;20077;-62
2022/09/14 21:51:25;;;;;;;1.05;0.35;;;17.40;99.90;;;;;;10323873;28;20041;-63
2022/09/14 21:56:29;;;;;;;0.40;0.17;;;17.40;99.90;;;;;;10333300;28;20121;-61
2022/09/14 22:01:31;;;;;;;0.93;0.20;;;17.30;99.90;;;;;;10339530;28;20483;-60
2022/09/14 22:06:33;;;;;;;2.05;0.20;;;17.30;99.90;;;;;;10333065;28;20058;-60
2022/09/14 22:11:37;;;;;;;0.40;0.20;;;17.20;99.90;;;;;;10346604;28;20124;-60
2022/09/14 22:16:40;;;;;;;0.25;0.20;;;17.20;99.90;;;;;;10334853;28;20053;-61
2022/09/14 22:21:42;;;;;;;0.30;0.20;;;17.20;99.90;;;;;;10336436;28;20539;-60
2022/09/14 22:26:45;;;;;;;2.60;0.30;;;17.20;99.90;;;;;;10312621;28;20814;-61
2022/09/14 22:31:46;;;;;;;2.58;0.47;;;17.10;99.90;;;;;;10332579;28;20084;-60
2022/09/14 22:36:48;;;;;;;0.95;0.50;;;17.10;99.90;;;;;;10335804;28;20136;-60
2022/09/14 22:41:50;;;;;;;1.85;0.73;;;17.10;99.90;;;;;;10333901;28;20145;-60
2022/09/14 22:46:52;;;;;;;2.67;1.10;;;17.10;99.90;;;;;;10333779;28;20533;-60
2022/09/14 22:51:53;;;;;;;1.45;1.05;;;17.00;99.90;;;;;;10333314;28;20121;-60
2022/09/14 22:56:55;;;;;;;5.18;0.98;;;17.00;99.90;;;;;;10333857;28;20133;-62
2022/09/14 23:01:57;;;;;;;1.90;0.80;;;17.00;99.90;;;;;;10330423;28;20137;-61
2022/09/14 23:06:59;;;;;;;1.25;1.00;;;17.00;99.90;;;;;;10333444;28;20058;-58
2022/09/14 23:12:01;;;;;;;4.90;1.35;;;16.90;99.90;;;;;;10337916;28;20165;-61
2022/09/14 23:17:02;;;;;;;3.30;1.50;;;17.00;99.90;;;;;;10331242;28;20133;-61
2022/09/14 23:22:04;;;;;;;12.20;1.38;;;17.00;99.90;;;;;;10331263;28;20054;-61
2022/09/14 23:27:06;;;;;;;1.27;0.73;;;17.00;99.90;;;;;;10326264;28;20066;-60
2022/09/14 23:32:08;;;;;;;3.35;1.30;;;17.00;99.90;;;;;;10331608;28;20096;-60
2022/09/14 23:37:09;;;;;;;2.03;1.05;;;17.00;99.90;;;;;;10326294;28;20462;-61
2022/09/14 23:42:11;;;;;;;3.85;1.00;;;16.90;99.90;;;;;;10332480;28;20078;-60
2022/09/14 23:47:13;;;;;;;5.20;1.65;;;16.90;99.90;;;;;;10329855;28;20489;-60
2022/09/14 23:52:14;;;;;;;4.32;1.40;;;17.00;99.90;;;;;;10332094;28;20137;-60
2022/09/14 23:57:16;;;;;;;4.28;1.42;;;17.00;99.90;;;;;;10335375;28;20064;-61
